createdAt,value
2022-08-05T05:27:44.137Z,22.80
2022-08-05T05:30:29.678Z,22.90
2022-08-05T05:33:03.550Z,22.90
2022-08-05T05:35:45.144Z,22.90
2022-08-05T05:38:14.385Z,22.90
2022-08-05T05:40:48.369Z,22.80
2022-08-05T05:43:27.838Z,22.80
2022-08-05T05:46:16.105Z,22.80
2022-08-05T05:48:48.033Z,22.80
2022-08-05T05:51:21.431Z,22.70
2022-08-05T05:53:57.311Z,22.80
2022-08-05T05:56:32.528Z,22.70
2022-08-05T05:59:03.219Z,22.70
2022-08-05T06:01:37.897Z,22.70
2022-08-05T06:04:11.647Z,22.80
2022-08-05T06:06:41.727Z,22.80
2022-08-05T06:09:17.585Z,22.70
2022-08-05T06:11:59.481Z,22.80
2022-08-05T06:14:30.582Z,22.80
2022-08-05T06:17:02.182Z,22.90
2022-08-05T06:19:56.542Z,23.00
2022-08-05T06:22:28.695Z,23.10
2022-08-05T06:24:57.010Z,23.30
2022-08-05T06:28:09.513Z,23.40
2022-08-05T06:30:17.673Z,23.90
2022-08-05T06:32:51.303Z,24.10
2022-08-05T06:36:03.108Z,24.00
2022-08-05T06:38:11.577Z,24.00
2022-08-05T06:40:42.354Z,24.00
2022-08-05T06:43:51.484Z,23.70
2022-08-05T06:46:04.075Z,23.60
2022-08-05T06:48:56.050Z,23.60
2022-08-05T06:51:29.998Z,23.60
2022-08-05T06:53:59.795Z,23.60
2022-08-05T06:56:28.196Z,23.50
2022-08-05T06:58:56.347Z,23.30
2022-08-05T07:01:27.696Z,23.10
2022-08-05T07:04:03.174Z,23.00
2022-08-05T07:06:31.979Z,23.00
2022-08-05T07:09:04.016Z,23.00
2022-08-05T07:11:37.259Z,22.90
2022-08-05T07:14:29.946Z,22.70
2022-08-05T07:18:02.278Z,22.70
2022-08-05T07:22:42.438Z,22.70
2022-08-05T07:25:54.378Z,22.80
2022-08-05T07:28:04.229Z,22.70
2022-08-05T07:30:38.753Z,22.60
2022-08-05T07:33:10.343Z,22.50
2022-08-05T07:36:03.569Z,22.40
2022-08-05T07:38:42.797Z,22.30
2022-08-05T07:42:07.355Z,22.30
2022-08-05T07:44:01.604Z,22.20
2022-08-05T07:46:32.063Z,22.10
2022-08-05T07:49:05.860Z,22.00
2022-08-05T07:51:41.143Z,22.00
2022-08-05T07:54:31.486Z,22.00
2022-08-05T07:57:23.666Z,22.00
2022-08-05T07:59:50.922Z,22.10
2022-08-05T08:02:19.079Z,22.10
2022-08-05T08:04:48.749Z,22.10
2022-08-05T08:07:22.367Z,22.10
2022-08-05T08:09:54.919Z,22.10
2022-08-05T08:12:37.082Z,22.40
2022-08-05T08:15:13.898Z,22.50
2022-08-05T08:17:52.796Z,22.70
2022-08-05T08:20:59.728Z,22.80
2022-08-05T08:23:59.875Z,22.90
2022-08-05T08:26:02.893Z,22.90
2022-08-05T08:28:36.155Z,22.80
2022-08-05T08:31:05.443Z,22.70
2022-08-05T08:33:36.158Z,22.70
2022-08-05T08:36:38.474Z,22.80
2022-08-05T08:38:57.091Z,22.80
2022-08-05T08:41:52.327Z,22.80
2022-08-05T08:45:22.940Z,22.80
2022-08-05T08:47:21.726Z,22.80
2022-08-05T08:50:22.760Z,22.80
2022-08-05T08:52:51.826Z,23.00
2022-08-05T08:56:02.421Z,23.10
2022-08-05T08:58:12.907Z,23.00
2022-08-05T09:00:43.499Z,23.00
2022-08-05T09:03:16.289Z,23.10
2022-08-05T09:06:07.941Z,23.10
2022-08-05T09:08:40.246Z,23.10
2022-08-05T09:11:13.663Z,23.30
2022-08-05T09:14:09.395Z,23.50
2022-08-05T09:16:31.476Z,23.60
2022-08-05T09:18:59.770Z,23.60
2022-08-05T09:22:22.258Z,23.60
2022-08-05T09:24:17.968Z,23.70
2022-08-05T09:26:52.648Z,23.80
2022-08-05T09:29:20.978Z,23.80
2022-08-05T09:32:51.879Z,23.80
2022-08-05T09:34:55.027Z,23.80
2022-08-05T09:38:17.603Z,23.60
2022-08-05T09:40:31.980Z,23.50
2022-08-05T09:43:08.549Z,23.40
2022-08-05T09:46:07.238Z,23.30
2022-08-05T09:48:29.518Z,23.20
2022-08-05T09:50:59.597Z,23.10
2022-08-05T09:53:54.772Z,23.00
2022-08-05T09:56:26.398Z,23.10
2022-08-05T09:59:00.684Z,23.20
2022-08-05T10:01:31.829Z,23.30
2022-08-05T10:04:03.663Z,23.50
2022-08-05T10:06:32.955Z,23.70
2022-08-05T10:09:28.262Z,23.90
2022-08-05T10:12:30.352Z,23.90
2022-08-05T10:15:16.278Z,23.90
2022-08-05T10:17:54.649Z,23.80
2022-08-05T10:20:26.531Z,23.70
2022-08-05T10:22:55.828Z,23.70
2022-08-05T10:25:26.575Z,23.70
2022-08-05T10:28:13.250Z,23.70
2022-08-05T10:32:52.140Z,23.60
2022-08-05T10:33:36.059Z,23.80
2022-08-05T10:36:05.899Z,23.80
2022-08-05T10:38:36.168Z,23.80
2022-08-05T10:41:14.078Z,23.80
2022-08-05T10:43:59.311Z,23.80
2022-08-05T10:46:45.298Z,23.70
2022-08-05T10:49:16.565Z,23.50
2022-08-05T10:51:48.635Z,23.50
2022-08-05T10:54:56.355Z,23.60
2022-08-05T10:57:30.960Z,23.80
2022-08-05T11:00:19.573Z,23.80
2022-08-05T11:03:23.438Z,24.00
2022-08-05T11:06:15.837Z,24.40
2022-08-05T11:09:31.877Z,24.80
2022-08-05T11:12:42.362Z,24.90
2022-08-05T11:15:22.238Z,25.00
2022-08-05T11:17:59.161Z,25.00
2022-08-05T11:20:43.823Z,25.00
2022-08-05T11:24:02.316Z,25.10
2022-08-05T11:26:28.420Z,25.10
2022-08-05T11:29:06.708Z,25.20
2022-08-05T11:31:58.580Z,25.50
2022-08-05T11:34:40.118Z,25.80
2022-08-05T11:38:29.891Z,25.90
2022-08-05T11:41:12.716Z,26.00
2022-08-05T11:44:04.404Z,26.10
2022-08-05T11:46:37.712Z,26.10
2022-08-05T11:49:07.915Z,26.10
2022-08-05T11:51:44.320Z,26.00
2022-08-05T11:54:34.034Z,26.00
2022-08-05T11:57:07.735Z,26.00
2022-08-05T11:59:50.017Z,26.00
2022-08-05T12:02:30.503Z,26.20
2022-08-05T12:05:08.098Z,26.40
2022-08-05T12:08:07.348Z,26.60
2022-08-05T12:10:45.490Z,26.80
2022-08-05T12:13:28.130Z,27.00
2022-08-05T12:16:14.786Z,27.20
2022-08-05T12:18:49.578Z,27.30
2022-08-05T12:21:23.873Z,27.40
2022-08-05T12:24:00.143Z,27.50
2022-08-05T12:26:37.486Z,27.60
2022-08-05T12:29:09.464Z,27.70
2022-08-05T12:31:45.910Z,27.70
2022-08-05T12:34:21.541Z,27.60
2022-08-05T12:36:53.330Z,27.30
2022-08-05T12:39:22.114Z,27.40
2022-08-05T12:41:58.012Z,27.40
2022-08-05T12:44:33.928Z,27.50
2022-08-05T12:47:03.656Z,27.50
2022-08-05T12:50:02.153Z,27.60
2022-08-05T12:52:37.754Z,27.80
2022-08-05T12:55:22.323Z,27.70
2022-08-05T12:58:52.425Z,27.30
2022-08-05T13:02:01.664Z,27.30
2022-08-05T13:03:41.537Z,27.20
2022-08-05T13:06:14.198Z,27.30
2022-08-05T13:08:52.353Z,27.40
2022-08-05T13:12:02.315Z,27.60
2022-08-05T13:14:19.252Z,27.70
2022-08-05T13:16:51.393Z,27.80
2022-08-05T13:19:23.009Z,28.10
2022-08-05T13:21:56.055Z,28.20
2022-08-05T13:24:36.330Z,28.20
2022-08-05T13:27:17.158Z,28.40
2022-08-05T13:30:34.511Z,28.50
2022-08-05T13:32:51.569Z,28.40
2022-08-05T13:35:22.095Z,28.10
2022-08-05T13:37:55.502Z,28.00
2022-08-05T13:40:36.903Z,28.00
2022-08-05T13:43:12.091Z,28.00
2022-08-05T13:45:43.280Z,28.10
2022-08-05T13:48:57.367Z,28.10
2022-08-05T13:51:07.069Z,27.80
2022-08-05T13:53:48.259Z,27.80
2022-08-05T13:56:18.790Z,27.90
2022-08-05T13:58:53.286Z,28.10
2022-08-05T14:01:27.500Z,28.20
2022-08-05T14:04:26.717Z,28.30
2022-08-05T14:06:58.799Z,28.20
2022-08-05T14:09:46.431Z,28.30
2022-08-05T14:12:17.705Z,28.30
2022-08-05T14:15:00.113Z,28.20
2022-08-05T14:17:28.554Z,28.10
2022-08-05T14:20:04.636Z,28.10
2022-08-05T14:22:36.338Z,28.10
2022-08-05T14:25:06.497Z,27.90
2022-08-05T14:27:48.472Z,27.80
2022-08-05T14:30:20.482Z,27.70
2022-08-05T14:32:49.484Z,27.30
2022-08-05T14:35:22.865Z,27.10
2022-08-05T14:37:55.412Z,27.10
2022-08-05T14:40:24.474Z,27.00
2022-08-05T14:42:52.651Z,26.90
2022-08-05T14:45:20.785Z,26.80
2022-08-05T14:48:02.798Z,26.70
2022-08-05T14:50:39.805Z,26.50
2022-08-05T14:53:08.975Z,26.50
2022-08-05T14:55:39.327Z,26.30
2022-08-05T14:58:10.924Z,26.20
2022-08-05T15:00:59.407Z,26.10
2022-08-05T15:03:33.674Z,26.00
2022-08-05T15:06:13.254Z,25.80
2022-08-05T15:08:59.777Z,25.70
2022-08-05T15:11:51.573Z,25.50
2022-08-05T15:14:34.426Z,25.40
2022-08-05T15:17:09.859Z,25.40
2022-08-05T15:19:48.873Z,25.30
2022-08-05T15:22:19.867Z,25.10
2022-08-05T15:24:49.391Z,25.00
2022-08-05T15:27:18.354Z,25.00
2022-08-05T15:29:47.946Z,24.90
2022-08-05T15:32:17.068Z,24.90
2022-08-05T15:34:45.166Z,24.80
2022-08-05T15:37:15.527Z,24.70
2022-08-05T15:41:04.792Z,24.70
2022-08-05T15:42:54.051Z,24.60
2022-08-05T15:45:38.227Z,24.50
2022-08-05T15:48:07.205Z,24.40
2022-08-05T15:50:35.918Z,24.30
2022-08-05T15:53:06.997Z,24.20
2022-08-05T15:56:03.716Z,24.20
2022-08-05T15:58:28.191Z,24.00
2022-08-05T16:01:04.335Z,23.90
2022-08-05T16:03:44.715Z,23.80
2022-08-05T16:06:20.231Z,23.80
2022-08-05T16:08:50.955Z,23.80
2022-08-05T16:11:42.404Z,23.80
2022-08-05T16:14:17.256Z,23.90
2022-08-05T16:16:46.388Z,23.80
2022-08-05T16:19:25.702Z,23.70
2022-08-05T16:22:03.666Z,23.60
2022-08-05T16:24:41.432Z,23.50
2022-08-05T16:27:46.773Z,23.40
2022-08-05T16:30:23.030Z,23.30
2022-08-05T16:32:54.052Z,23.30
2022-08-05T16:35:27.928Z,23.10
2022-08-05T16:38:16.013Z,22.80
2022-08-05T16:40:55.416Z,22.80
2022-08-05T16:43:26.395Z,22.70
2022-08-05T16:46:04.465Z,22.70
2022-08-05T16:48:36.768Z,22.80
2022-08-05T16:51:10.231Z,22.70
2022-08-05T16:54:03.853Z,22.50
2022-08-05T16:56:33.618Z,22.20
2022-08-05T16:59:08.448Z,21.80
2022-08-05T17:01:53.978Z,21.70
2022-08-05T17:04:26.357Z,21.50
2022-08-05T17:06:55.491Z,21.20
2022-08-05T17:09:23.618Z,20.90
2022-08-05T17:11:55.982Z,20.70
2022-08-05T17:14:34.275Z,20.50
2022-08-05T17:17:06.447Z,20.50
2022-08-05T17:19:37.433Z,20.40
2022-08-05T17:22:05.430Z,20.30
2022-08-05T17:24:39.111Z,20.40
2022-08-05T17:27:13.379Z,20.30
2022-08-05T17:29:47.151Z,20.30
2022-08-05T17:32:19.352Z,20.30
2022-08-05T17:34:48.533Z,20.30
2022-08-05T17:37:41.948Z,20.20
2022-08-05T17:40:12.215Z,20.10
2022-08-05T17:42:46.448Z,20.10
2022-08-05T17:45:22.165Z,20.00
2022-08-05T17:47:56.045Z,20.00
2022-08-05T17:50:28.375Z,20.00
2022-08-05T17:53:00.120Z,19.80
2022-08-05T17:55:37.336Z,19.80
2022-08-05T17:58:11.109Z,19.70
2022-08-05T18:00:44.935Z,19.70
2022-08-05T18:03:39.255Z,19.70
2022-08-05T18:06:11.189Z,19.70
2022-08-05T18:08:44.471Z,19.70
2022-08-05T18:11:24.579Z,19.50
2022-08-05T18:14:03.535Z,19.40
2022-08-05T18:16:33.736Z,19.40
2022-08-05T18:19:01.842Z,19.20
2022-08-05T18:22:07.166Z,19.20
2022-08-05T18:24:17.733Z,19.10
2022-08-05T18:26:45.672Z,19.10
2022-08-05T18:29:16.848Z,19.10
2022-08-05T18:31:46.319Z,19.00
2022-08-05T18:34:21.660Z,19.00
2022-08-05T18:36:49.932Z,19.00
2022-08-05T18:39:42.264Z,18.90
2022-08-05T18:42:10.830Z,18.80
2022-08-05T18:44:51.686Z,18.70
2022-08-05T18:47:26.694Z,18.70
2022-08-05T18:50:13.052Z,18.70
2022-08-05T18:52:50.931Z,18.60
2022-08-05T18:55:21.535Z,18.60
2022-08-05T18:57:53.422Z,18.60
2022-08-05T19:00:27.192Z,18.50
2022-08-05T19:03:03.688Z,18.50
2022-08-05T19:06:11.822Z,18.50
2022-08-05T19:08:22.121Z,18.40
2022-08-05T19:11:02.703Z,18.40
2022-08-05T19:13:35.913Z,18.40
2022-08-05T19:16:22.217Z,18.40
2022-08-05T19:18:56.692Z,18.40
2022-08-05T19:21:26.013Z,18.30
2022-08-05T19:24:05.687Z,18.30
2022-08-05T19:26:54.206Z,18.20
2022-08-05T19:29:24.127Z,18.20
2022-08-05T19:31:55.269Z,18.20
2022-08-05T19:34:26.973Z,18.20
2022-08-05T19:36:55.179Z,18.10
2022-08-05T19:39:23.314Z,18.20
2022-08-05T19:42:07.641Z,18.10
2022-08-05T19:44:44.951Z,18.10
2022-08-05T19:47:16.120Z,18.10
2022-08-05T19:49:48.069Z,18.10
2022-08-05T19:52:31.679Z,18.00
2022-08-05T19:55:07.310Z,18.00
2022-08-05T19:58:06.696Z,18.00
2022-08-05T20:00:38.192Z,18.00
2022-08-05T20:03:08.953Z,18.00
2022-08-05T20:05:49.818Z,18.00
2022-08-05T20:08:20.473Z,18.00
2022-08-05T20:10:53.650Z,17.90
2022-08-05T20:13:29.971Z,17.80
2022-08-05T20:16:11.106Z,17.80
2022-08-05T20:18:40.161Z,17.70
2022-08-05T20:21:09.876Z,17.60
2022-08-05T20:23:51.199Z,17.60
2022-08-05T20:26:23.288Z,17.60
2022-08-05T20:28:55.857Z,17.50
2022-08-05T20:31:28.563Z,17.40
2022-08-05T20:34:12.296Z,17.30
2022-08-05T20:36:43.147Z,17.30
2022-08-05T20:39:13.115Z,17.30
2022-08-05T20:41:44.222Z,17.20
2022-08-05T20:44:19.085Z,17.20
2022-08-05T20:46:57.944Z,17.20
2022-08-05T20:49:26.397Z,17.10
2022-08-05T20:51:57.446Z,17.10
2022-08-05T20:54:42.673Z,17.10
2022-08-05T20:57:24.814Z,17.10
2022-08-05T21:00:19.846Z,17.10
2022-08-05T21:02:55.447Z,17.10
2022-08-05T21:05:25.211Z,17.10
2022-08-05T21:07:58.258Z,17.10
2022-08-05T21:10:27.842Z,17.10
2022-08-05T21:13:09.020Z,17.10
2022-08-05T21:15:44.391Z,17.00
2022-08-05T21:18:14.168Z,17.00
2022-08-05T21:20:42.202Z,16.90
2022-08-05T21:23:12.896Z,16.90
2022-08-05T21:25:44.828Z,16.80
2022-08-05T21:28:13.094Z,16.80
2022-08-05T21:30:46.973Z,16.80
2022-08-05T21:33:22.606Z,16.80
2022-08-05T21:35:58.499Z,16.80
2022-08-05T21:38:29.059Z,16.80
2022-08-05T21:40:57.598Z,16.80
2022-08-05T21:43:26.175Z,16.80
2022-08-05T21:46:10.042Z,16.70
2022-08-05T21:48:40.030Z,16.70
2022-08-05T21:51:25.167Z,16.70
2022-08-05T21:54:03.602Z,16.60
2022-08-05T21:56:32.150Z,16.60
2022-08-05T21:59:01.307Z,16.60
2022-08-05T22:01:36.553Z,16.70
2022-08-05T22:04:04.997Z,16.70
2022-08-05T22:06:35.485Z,16.70
2022-08-05T22:09:13.562Z,16.70
2022-08-05T22:11:46.688Z,16.70
2022-08-05T22:14:32.981Z,16.70
2022-08-05T22:17:03.874Z,16.70
2022-08-05T22:20:00.303Z,16.80
2022-08-05T22:22:28.083Z,16.80
2022-08-05T22:25:18.194Z,16.80
2022-08-05T22:28:08.793Z,16.80
2022-08-05T22:30:44.031Z,16.80
2022-08-05T22:33:56.944Z,16.80
2022-08-05T22:36:15.313Z,16.80
2022-08-05T22:38:48.461Z,16.70
2022-08-05T22:42:04.480Z,16.70
2022-08-05T22:44:07.874Z,16.70
2022-08-05T22:46:39.714Z,16.70
2022-08-05T22:49:23.347Z,16.70
2022-08-05T22:52:05.414Z,16.60
2022-08-05T22:54:36.357Z,16.60
2022-08-05T22:57:06.348Z,16.60
2022-08-05T22:59:42.952Z,16.40
2022-08-05T23:02:17.255Z,16.50
2022-08-05T23:04:51.175Z,16.40
2022-08-05T23:07:21.909Z,16.40
2022-08-05T23:09:58.256Z,16.40
2022-08-05T23:12:32.431Z,16.30
2022-08-05T23:15:03.585Z,16.30
2022-08-05T23:17:37.561Z,16.30
2022-08-05T23:20:10.448Z,16.10
2022-08-05T23:22:47.189Z,16.10
2022-08-05T23:25:50.158Z,16.10
2022-08-05T23:28:07.729Z,16.00
2022-08-05T23:30:40.123Z,15.90
2022-08-05T23:33:16.036Z,15.90
2022-08-05T23:35:51.348Z,15.80
2022-08-05T23:38:19.709Z,15.80
2022-08-05T23:40:50.258Z,15.80
2022-08-05T23:43:25.408Z,15.70
2022-08-05T23:46:20.382Z,15.70
2022-08-05T23:49:01.023Z,15.70
2022-08-05T23:51:53.318Z,15.60
2022-08-05T23:54:25.829Z,15.60
2022-08-05T23:56:55.496Z,15.50
2022-08-05T23:59:37.310Z,15.50
